Time;durP1;ratioP1;P1;durP2;ratioP2;P2;SDS_P1;SDS_P2;PMS_P1;PMS_P2;Temp;Humidity;BMP_temperature;BMP_pressure;BME280_temperature;BME280_humidity;BME280_pressure;Samples;Min_cycle;Max_cycle;Signal;HPM_P1;HPM_P2
2023/05/22 00:00:41;;;;;;;;;;;;;;;15.53;100.00;101388.41;5063458;28;1264;-73
2023/05/22 00:03:07;;;;;;;;;;;;;;;15.50;100.00;101388.72;5065295;28;1981;-74
2023/05/22 00:05:33;;;;;;;;;;;;;;;15.52;100.00;101397.25;5066516;28;1207;-72
2023/05/22 00:07:58;;;;;;;;;;;;;;;15.52;100.00;101392.00;5073307;28;1125;-72
2023/05/22 00:10:23;;;;;;;;;;;;;;;15.52;100.00;101397.25;5062080;28;1220;-72
2023/05/22 00:12:49;;;;;;;;;;;;;;;15.55;100.00;101404.81;5060298;28;1543;-72
2023/05/22 00:15:14;;;;;;;;;;;;;;;15.55;100.00;101407.41;5062428;28;1276;-72
2023/05/22 00:17:39;;;;;;;;;;;;;;;15.57;100.00;101406.28;5063839;28;1279;-72
2023/05/22 00:20:09;;;;;;;;;;;;;;;15.57;100.00;101401.06;5066394;28;1221;-72
2023/05/22 00:22:35;;;;;;;;;;;;;;;15.59;100.00;101424.44;5066892;28;1992;-72
2023/05/22 00:25:01;;;;;;;;;;;;;;;15.63;99.62;101418.00;5070909;28;1205;-74
2023/05/22 00:27:27;;;;;;;;;;;;;;;15.66;99.50;101412.50;5063271;28;1256;-74
2023/05/22 00:29:52;;;;;;;;;;;;;;;15.67;98.97;101408.91;5063698;28;1494;-72
2023/05/22 00:32:17;;;;;;;;;;;;;;;15.68;99.01;101409.75;5060550;28;1265;-72
2023/05/22 00:34:43;;;;;;;;;;;;;;;15.70;99.63;101400.75;5057817;28;1151;-72
2023/05/22 00:37:09;;;;;;;;;;;;;;;15.68;100.00;101402.72;5062522;28;1331;-72
2023/05/22 00:39:34;;;;;;;;;;;;;;;15.65;99.65;101410.84;5063441;28;1495;-72
2023/05/22 00:42:00;;;;;;;;;;;;;;;15.65;98.16;101408.22;5054792;28;1890;-73
2023/05/22 00:44:25;;;;;;;;;;;;;;;15.65;98.58;101408.22;5062021;28;1125;-75
2023/05/22 00:46:51;;;;;;;;;;;;;;;15.67;98.46;101406.31;5049580;28;1294;-72
2023/05/22 00:49:16;;;;;;;;;;;;;;;15.69;98.43;101409.59;5044114;28;1465;-72
2023/05/22 00:51:41;;;;;;;;;;;;;;;15.68;98.38;101418.41;5056920;28;1543;-72
2023/05/22 00:54:08;;;;;;;;;;;;;;;15.67;98.33;101406.31;5040791;28;1526;-72
2023/05/22 00:56:33;;;;;;;;;;;;;;;15.68;98.43;101407.94;5064318;28;1262;-72
2023/05/22 00:58:59;;;;;;;;;;;;;;;15.69;98.59;101408.75;5064610;28;1570;-73
2023/05/22 01:01:25;;;;;;;;;;;;;;;15.66;99.63;101399.44;5065005;28;1901;-72
2023/05/22 01:03:50;;;;;;;;;;;;;;;15.59;100.00;101398.31;5053445;28;1268;-73
2023/05/22 01:06:20;;;;;;;;;;;;;;;15.49;100.00;101392.31;5068753;28;1263;-72
2023/05/22 01:08:45;;;;;;;;;;;;;;;15.45;99.75;101390.94;5049897;28;1384;-72
2023/05/22 01:11:20;;;;;;;;;;;;;;;15.44;100.00;101384.06;5051501;28;1298;-72
2023/05/22 01:13:57;;;;;;;;;;;;;;;15.43;99.73;101372.78;5051317;28;1500;-73
2023/05/22 01:16:22;;;;;;;;;;;;;;;15.43;99.14;101377.19;5066220;28;1291;-73
2023/05/22 01:18:54;;;;;;;;;;;;;;;15.41;98.84;101378.13;5068027;28;1266;-74
2023/05/22 01:21:36;;;;;;;;;;;;;;;15.43;99.04;101377.19;5062587;28;1978;-75
2023/05/22 01:24:05;;;;;;;;;;;;;;;15.45;98.61;101380.47;5059269;28;1178;-73
2023/05/22 01:26:49;;;;;;;;;;;;;;;15.44;99.78;101376.22;5041586;28;1338;-73
2023/05/22 01:29:14;;;;;;;;;;;;;;;15.39;99.33;101377.47;5064331;28;1027;-73
2023/05/22 01:31:41;;;;;;;;;;;;;;;15.35;99.33;101376.09;5059693;28;1134;-72
2023/05/22 01:34:09;;;;;;;;;;;;;;;15.31;99.01;101369.53;5069365;28;1419;-74
2023/05/22 01:36:35;;;;;;;;;;;;;;;15.27;99.84;101368.16;5061576;28;1224;-72
2023/05/22 01:39:04;;;;;;;;;;;;;;;15.24;98.92;101371.03;5051388;28;1254;-72
2023/05/22 01:41:31;;;;;;;;;;;;;;;15.24;98.71;101371.03;5050768;28;1973;-73
2023/05/22 01:43:56;;;;;;;;;;;;;;;15.24;99.03;101373.66;5067590;28;1415;-73
2023/05/22 01:46:24;;;;;;;;;;;;;;;15.24;99.03;101373.66;5052478;28;1606;-73
2023/05/22 01:48:49;;;;;;;;;;;;;;;15.22;98.89;101370.38;5069392;28;1375;-73
2023/05/22 01:51:19;;;;;;;;;;;;;;;15.23;99.07;101376.41;5070366;28;1209;-72
2023/05/22 01:53:50;;;;;;;;;;;;;;;15.22;98.86;101375.59;5051420;28;1195;-72
2023/05/22 01:56:19;;;;;;;;;;;;;;;15.22;98.85;101370.38;5051842;28;1510;-73
2023/05/22 01:59:03;;;;;;;;;;;;;;;15.17;98.98;101377.81;5070497;28;1074;-72
2023/05/22 02:01:31;;;;;;;;;;;;;;;15.17;99.11;101367.34;5051224;28;1902;-72
2023/05/22 02:03:56;;;;;;;;;;;;;;;15.19;99.26;101364.59;5069595;28;1235;-73
2023/05/22 02:06:24;;;;;;;;;;;;;;;15.21;98.96;101367.91;5062942;28;1193;-72
2023/05/22 02:08:50;;;;;;;;;;;;;;;15.22;99.35;101365.16;5050903;28;1427;-72
2023/05/22 02:11:16;;;;;;;;;;;;;;;15.20;99.04;101372.31;5060904;28;1555;-72
2023/05/22 02:13:42;;;;;;;;;;;;;;;15.18;99.05;101369.00;5050464;28;1174;-72
2023/05/22 02:16:07;;;;;;;;;;;;;;;15.16;99.48;101370.94;5068516;28;1403;-75
2023/05/22 02:18:32;;;;;;;;;;;;;;;15.14;99.35;101371.09;5057277;28;1128;-73
2023/05/22 02:20:58;;;;;;;;;;;;;;;15.13;99.27;101371.22;5071434;28;1183;-72
2023/05/22 02:23:24;;;;;;;;;;;;;;;15.10;99.38;101367.09;5068862;28;1910;-73
2023/05/22 02:25:49;;;;;;;;;;;;;;;15.08;99.33;101363.81;5062057;28;1530;-73
2023/05/22 02:28:14;;;;;;;;;;;;;;;15.05;99.29;101363.28;5051606;28;1243;-75
2023/05/22 02:30:40;;;;;;;;;;;;;;;15.04;99.29;101362.44;5057769;28;1145;-73
2023/05/22 02:33:05;;;;;;;;;;;;;;;15.01;99.58;101360.09;5042040;28;1206;-76
2023/05/22 02:35:31;;;;;;;;;;;;;;;15.00;99.51;101360.25;5062247;28;1241;-72
2023/05/22 02:37:56;;;;;;;;;;;;;;;14.98;99.37;101356.97;5068784;28;1361;-72
2023/05/22 02:40:21;;;;;;;;;;;;;;;14.95;99.34;101352.00;5070646;28;1244;-72
2023/05/22 02:42:46;;;;;;;;;;;;;;;14.90;99.43;101344.59;5043387;28;1897;-73
2023/05/22 02:45:12;;;;;;;;;;;;;;;14.86;99.16;101354.50;5045390;28;1339;-72
2023/05/22 02:47:37;;;;;;;;;;;;;;;14.83;99.71;101360.00;5046399;28;1138;-72
2023/05/22 02:50:02;;;;;;;;;;;;;;;14.81;99.21;101351.50;5067315;28;1072;-72
2023/05/22 02:52:28;;;;;;;;;;;;;;;14.80;99.51;101349.84;5048879;28;1225;-72
2023/05/22 02:54:53;;;;;;;;;;;;;;;14.80;99.64;101344.63;5065048;28;1292;-73
2023/05/22 02:57:18;;;;;;;;;;;;;;;14.80;100.00;101343.81;5065118;28;1081;-72
2023/05/22 02:59:43;;;;;;;;;;;;;;;14.79;99.93;101348.19;5066131;28;1522;-72
2023/05/22 03:02:08;;;;;;;;;;;;;;;14.73;100.00;101342.69;5068926;28;1902;-72
2023/05/22 03:04:37;;;;;;;;;;;;;;;14.71;100.00;101344.63;5062648;28;1229;-73
2023/05/22 03:07:02;;;;;;;;;;;;;;;14.73;100.00;101343.50;5058977;28;1036;-71
2023/05/22 03:09:27;;;;;;;;;;;;;;;14.72;100.00;101352.31;5041723;28;1163;-72
2023/05/22 03:11:52;;;;;;;;;;;;;;;14.74;100.00;101345.19;5085953;28;1510;-75
2023/05/22 03:14:18;;;;;;;;;;;;;;;14.76;100.00;101339.81;5070691;28;1241;-72
2023/05/22 03:16:43;;;;;;;;;;;;;;;14.73;100.00;101348.72;5062934;28;1566;-72
2023/05/22 03:19:09;;;;;;;;;;;;;;;14.69;100.00;101339.56;5057320;28;1343;-72
2023/05/22 03:21:35;;;;;;;;;;;;;;;14.69;100.00;101336.94;5057805;28;1902;-72
2023/05/22 03:24:00;;;;;;;;;;;;;;;14.68;100.00;101340.53;5063908;28;1224;-72
2023/05/22 03:26:27;;;;;;;;;;;;;;;14.69;100.00;101330.91;5060768;28;1615;-72
2023/05/22 03:28:52;;;;;;;;;;;;;;;14.68;100.00;101331.84;5063518;28;1615;-72
2023/05/22 03:31:17;;;;;;;;;;;;;;;14.63;100.00;101332.28;5068553;28;1680;-72
2023/05/22 03:33:42;;;;;;;;;;;;;;;14.54;100.00;101333.09;5046435;28;1270;-72
2023/05/22 03:36:08;;;;;;;;;;;;;;;14.51;100.00;101328.16;5056185;28;1193;-73
2023/05/22 03:38:34;;;;;;;;;;;;;;;14.50;100.00;101326.50;5065268;28;1208;-73
2023/05/22 03:40:59;;;;;;;;;;;;;;;14.52;100.00;101327.19;5064355;28;1467;-72
2023/05/22 03:43:24;;;;;;;;;;;;;;;14.54;100.00;101327.88;5057794;28;1965;-72
2023/05/22 03:45:49;;;;;;;;;;;;;;;14.55;100.00;101329.53;5064448;28;1510;-74
2023/05/22 03:48:15;;;;;;;;;;;;;;;14.53;100.00;101336.69;5067876;28;1272;-72
2023/05/22 03:50:40;;;;;;;;;;;;;;;14.49;100.00;101330.06;5044631;28;1249;-73
2023/05/22 03:53:05;;;;;;;;;;;;;;;14.53;100.00;101337.50;5051065;28;1448;-72
2023/05/22 03:55:30;;;;;;;;;;;;;;;14.52;100.00;101329.81;5068623;28;1177;-73
2023/05/22 03:57:56;;;;;;;;;;;;;;;14.55;100.00;101329.53;5044065;28;1281;-72
2023/05/22 04:00:21;;;;;;;;;;;;;;;14.51;100.00;101328.16;5063922;28;1228;-72
2023/05/22 04:02:49;;;;;;;;;;;;;;;14.49;100.00;101324.84;5065753;28;1906;-72
2023/05/22 04:05:14;;;;;;;;;;;;;;;14.49;100.00;101324.84;5067009;28;1073;-71
2023/05/22 04:07:39;;;;;;;;;;;;;;;14.49;100.00;101327.47;5056043;28;1312;-72
2023/05/22 04:10:05;;;;;;;;;;;;;;;14.44;100.00;101324.41;5071509;28;1066;-72
2023/05/22 04:12:30;;;;;;;;;;;;;;;14.41;100.00;101332.53;5041240;28;1272;-72
2023/05/22 04:14:55;;;;;;;;;;;;;;;14.33;100.00;101331.41;5042269;28;1327;-72
2023/05/22 04:17:21;;;;;;;;;;;;;;;14.35;100.00;101339.94;5047706;28;1311;-72
2023/05/22 04:19:46;;;;;;;;;;;;;;;14.36;100.00;101335.56;5045979;28;1322;-72
2023/05/22 04:22:11;;;;;;;;;;;;;;;14.33;100.00;101335.81;5066842;28;1929;-71
2023/05/22 04:24:38;;;;;;;;;;;;;;;14.32;100.00;101349.81;5054667;28;1011;-72
2023/05/22 04:27:04;;;;;;;;;;;;;;;14.33;100.00;101347.06;5064645;28;942;-72
2023/05/22 04:29:29;;;;;;;;;;;;;;;14.17;100.00;101344.19;5046230;28;1162;-73
2023/05/22 04:31:56;;;;;;;;;;;;;;;14.11;100.00;101344.75;5063624;28;1313;-71
2023/05/22 04:34:22;;;;;;;;;;;;;;;14.08;100.00;101337.16;5064725;28;1448;-72
2023/05/22 04:36:48;;;;;;;;;;;;;;;14.05;100.00;101342.69;5063306;28;1267;-72
2023/05/22 04:39:13;;;;;;;;;;;;;;;13.95;100.00;101354.88;5067563;28;1213;-71
2023/05/22 04:41:39;;;;;;;;;;;;;;;13.92;100.00;101358.56;5058844;28;1965;-73
2023/05/22 04:44:04;;;;;;;;;;;;;;;13.89;100.00;101358.00;5065684;28;1137;-72
2023/05/22 04:46:30;;;;;;;;;;;;;;;13.81;100.00;101367.28;5064427;28;1292;-73
2023/05/22 04:48:57;;;;;;;;;;;;;;;13.78;100.00;101356.34;5066720;28;1277;-72
2023/05/22 04:51:22;;;;;;;;;;;;;;;13.76;100.00;101364.28;5067290;28;1056;-73
2023/05/22 04:53:48;;;;;;;;;;;;;;;13.77;100.00;101360.72;5067460;28;1154;-72
2023/05/22 04:56:13;;;;;;;;;;;;;;;13.73;100.00;101359.31;5060697;28;1187;-72
2023/05/22 04:58:39;;;;;;;;;;;;;;;13.72;100.00;101352.47;5061174;28;1508;-72
2023/05/22 05:01:04;;;;;;;;;;;;;;;13.73;100.00;101354.13;5059195;28;1288;-72
2023/05/22 05:03:29;;;;;;;;;;;;;;;13.69;100.00;101363.16;5064464;28;1951;-72
2023/05/22 05:05:55;;;;;;;;;;;;;;;13.72;100.00;101364.69;5070572;28;1569;-73
2023/05/22 05:08:20;;;;;;;;;;;;;;;13.76;100.00;101364.28;5064101;28;1411;-73
2023/05/22 05:10:46;;;;;;;;;;;;;;;13.78;100.00;101378.00;5060511;28;1239;-72
2023/05/22 05:13:11;;;;;;;;;;;;;;;13.76;100.00;101369.50;5061758;28;1201;-75
2023/05/22 05:15:36;;;;;;;;;;;;;;;13.74;100.00;101366.19;5066185;28;1075;-72
2023/05/22 05:18:01;;;;;;;;;;;;;;;13.71;100.00;101371.69;5067023;28;1558;-72
2023/05/22 05:20:27;;;;;;;;;;;;;;;13.70;100.00;101369.19;5063903;28;1086;-73
2023/05/22 05:22:52;;;;;;;;;;;;;;;13.70;100.00;101370.00;5065702;28;1947;-71
2023/05/22 05:25:17;;;;;;;;;;;;;;;13.72;100.00;101367.28;5067222;28;1146;-72
2023/05/22 05:27:42;;;;;;;;;;;;;;;13.74;100.00;101370.56;5048885;28;1436;-71
2023/05/22 05:30:08;;;;;;;;;;;;;;;13.74;100.00;101381.81;5066986;28;1129;-72
2023/05/22 05:32:33;;;;;;;;;;;;;;;13.73;100.00;101374.16;5046426;28;1325;-72
2023/05/22 05:34:58;;;;;;;;;;;;;;;13.80;100.00;101381.28;5062466;28;1208;-72
2023/05/22 05:37:23;;;;;;;;;;;;;;;13.76;100.00;101385.16;5065828;28;1273;-73
2023/05/22 05:39:49;;;;;;;;;;;;;;;13.70;100.00;101379.59;5056608;28;1292;-73
2023/05/22 05:42:16;;;;;;;;;;;;;;;13.71;100.00;101387.31;5065636;28;1957;-73
2023/05/22 05:44:41;;;;;;;;;;;;;;;13.69;100.00;101384.00;5063521;28;1270;-72
2023/05/22 05:47:06;;;;;;;;;;;;;;;13.69;100.00;101386.59;5068031;28;1169;-72
2023/05/22 05:49:32;;;;;;;;;;;;;;;13.72;100.00;101383.75;5047521;28;1194;-73
2023/05/22 05:51:57;;;;;;;;;;;;;;;13.78;100.00;101383.22;5067256;28;1106;-72
2023/05/22 05:54:25;;;;;;;;;;;;;;;13.82;100.00;101382.00;5065425;28;1240;-72
2023/05/22 05:56:50;;;;;;;;;;;;;;;13.87;100.00;101388.59;5039599;28;1431;-73
2023/05/22 05:59:15;;;;;;;;;;;;;;;13.93;100.00;101393.28;5062666;28;1279;-73
2023/05/22 06:01:43;;;;;;;;;;;;;;;13.99;100.00;101400.56;5036941;28;1902;-73
2023/05/22 06:04:08;;;;;;;;;;;;;;;14.02;100.00;101395.09;5059069;28;1255;-72
2023/05/22 06:06:38;;;;;;;;;;;;;;;13.99;100.00;101385.75;5045014;28;1314;-73
2023/05/22 06:09:06;;;;;;;;;;;;;;;13.99;100.00;101390.13;5066296;28;1396;-72
2023/05/22 06:11:31;;;;;;;;;;;;;;;14.04;100.00;101393.16;5043526;28;1207;-72
2023/05/22 06:13:58;;;;;;;;;;;;;;;14.09;100.00;101390.97;5071126;28;1147;-72
2023/05/22 06:16:23;;;;;;;;;;;;;;;14.11;100.00;101394.31;5050117;28;1562;-73
2023/05/22 06:18:51;;;;;;;;;;;;;;;14.13;100.00;101397.59;5051781;28;1316;-72
2023/05/22 06:21:19;;;;;;;;;;;;;;;14.07;100.00;101395.53;5066916;28;1947;-72
2023/05/22 06:23:45;;;;;;;;;;;;;;;14.13;100.00;101407.22;5061551;28;1123;-72
2023/05/22 06:26:10;;;;;;;;;;;;;;;14.13;100.00;101408.03;5068541;28;1233;-72
2023/05/22 06:28:35;;;;;;;;;;;;;;;14.12;100.00;101411.59;5061253;28;1360;-72
2023/05/22 06:31:00;;;;;;;;;;;;;;;14.15;100.00;101410.50;5060843;28;1221;-74
2023/05/22 06:33:25;;;;;;;;;;;;;;;14.18;100.00;101405.84;5049346;28;1373;-72
2023/05/22 06:35:51;;;;;;;;;;;;;;;14.21;100.00;101410.78;5041853;28;1368;-72
2023/05/22 06:38:16;;;;;;;;;;;;;;;14.24;100.00;101410.53;5042032;28;1561;-72
2023/05/22 06:40:41;;;;;;;;;;;;;;;14.24;100.00;101407.91;5058125;28;1276;-73
2023/05/22 06:43:06;;;;;;;;;;;;;;;14.29;100.00;101413.56;5050491;28;1930;-72
2023/05/22 06:45:32;;;;;;;;;;;;;;;14.34;100.00;101406.16;5075983;28;1208;-72
2023/05/22 06:47:57;;;;;;;;;;;;;;;14.43;100.00;101416.72;5054754;28;1212;-72
2023/05/22 06:50:22;;;;;;;;;;;;;;;14.43;100.00;101424.56;5065577;28;1303;-72
2023/05/22 06:52:48;;;;;;;;;;;;;;;14.45;100.00;101417.41;5057463;28;1237;-72
2023/05/22 06:55:13;;;;;;;;;;;;;;;14.43;100.00;101419.34;5068837;28;1350;-72
2023/05/22 06:57:38;;;;;;;;;;;;;;;14.43;100.00;101419.34;5066881;28;1261;-73
2023/05/22 07:00:08;;;;;;;;;;;;;;;14.50;100.00;101415.25;5043492;28;1462;-73
2023/05/22 07:02:33;;;;;;;;;;;;;;;14.57;100.00;101416.38;5049740;28;2083;-72
2023/05/22 07:04:59;;;;;;;;;;;;;;;14.59;100.00;101419.66;5057776;28;1499;-73
2023/05/22 07:07:24;;;;;;;;;;;;;;;14.64;100.00;101420.06;5063436;28;1328;-72
2023/05/22 07:09:49;;;;;;;;;;;;;;;14.70;100.00;101422.13;5060419;28;1420;-73
2023/05/22 07:12:15;;;;;;;;;;;;;;;14.77;100.00;101423.22;5059523;28;1368;-73
2023/05/22 07:14:41;;;;;;;;;;;;;;;14.85;100.00;101426.00;5066947;28;1203;-73
2023/05/22 07:17:06;;;;;;;;;;;;;;;14.94;100.00;101418.28;5054662;28;1522;-72
2023/05/22 07:19:31;;;;;;;;;;;;;;;15.01;100.00;101429.81;5067300;28;1212;-73
2023/05/22 07:21:58;;;;;;;;;;;;;;;15.07;100.00;101424.84;5066575;28;1910;-73
2023/05/22 07:24:24;;;;;;;;;;;;;;;15.11;100.00;101430.63;5060967;28;1617;-73
2023/05/22 07:26:49;;;;;;;;;;;;;;;15.13;100.00;101426.09;5059212;28;1189;-73
2023/05/22 07:29:14;;;;;;;;;;;;;;;15.18;100.00;101425.66;5061669;28;1252;-74
2023/05/22 07:31:40;;;;;;;;;;;;;;;15.25;100.00;101432.78;5068463;28;1268;-73
2023/05/22 07:34:06;;;;;;;;;;;;;;;15.30;100.00;101430.59;5068060;28;1251;-73
2023/05/22 07:36:31;;;;;;;;;;;;;;;15.37;100.00;101429.09;5063623;28;1297;-72
2023/05/22 07:38:56;;;;;;;;;;;;;;;15.44;100.00;101431.13;5055498;28;1451;-72
2023/05/22 07:41:22;;;;;;;;;;;;;;;15.52;100.00;101428.59;5063573;28;1968;-72
2023/05/22 07:43:48;;;;;;;;;;;;;;;15.60;100.00;101426.94;5060258;28;1605;-73
2023/05/22 07:46:13;;;;;;;;;;;;;;;15.68;100.00;101423.63;5046424;28;1299;-73
2023/05/22 07:48:38;;;;;;;;;;;;;;;15.77;100.00;101422.78;5063828;28;1217;-73
2023/05/22 07:51:03;;;;;;;;;;;;;;;15.82;100.00;101425.75;5047548;28;1283;-73
2023/05/22 07:53:29;;;;;;;;;;;;;;;15.93;100.00;101424.75;5066764;28;1407;-73
2023/05/22 07:55:54;;;;;;;;;;;;;;;16.07;100.00;101431.31;5046709;28;1306;-73
2023/05/22 07:58:19;;;;;;;;;;;;;;;16.10;100.00;101428.38;5053477;28;1104;-73
2023/05/22 08:00:45;;;;;;;;;;;;;;;16.16;100.00;101427.78;5061575;28;1247;-73
2023/05/22 08:03:10;;;;;;;;;;;;;;;16.31;100.00;101442.03;5055283;28;1898;-73
2023/05/22 08:05:36;;;;;;;;;;;;;;;16.49;100.00;101449.91;5064851;28;1236;-73
2023/05/22 08:08:01;;;;;;;;;;;;;;;16.50;100.00;101448.13;5042130;28;1597;-73
2023/05/22 08:10:27;;;;;;;;;;;;;;;16.59;100.00;101445.44;5046511;28;1481;-73
2023/05/22 08:12:52;;;;;;;;;;;;;;;16.68;100.00;101443.69;5064657;28;1725;-73
2023/05/22 08:15:17;;;;;;;;;;;;;;;16.79;100.00;101446.13;5047250;28;1601;-72
2023/05/22 08:17:42;;;;;;;;;;;;;;;16.89;100.00;101452.13;5044900;28;1310;-72
2023/05/22 08:20:08;;;;;;;;;;;;;;;16.93;100.00;101453.47;5062254;28;1185;-73
2023/05/22 08:22:33;;;;;;;;;;;;;;;16.94;100.00;101455.13;5071597;28;1961;-74
2023/05/22 08:24:58;;;;;;;;;;;;;;;16.97;100.00;101454.81;5074453;28;1303;-69
2023/05/22 08:27:24;;;;;;;;;;;;;;;17.04;100.00;101454.22;5055136;28;1490;-71
2023/05/22 08:29:50;;;;;;;;;;;;;;;17.10;100.00;101443.13;5058088;28;1404;-73
2023/05/22 08:32:16;;;;;;;;;;;;;;;17.13;100.00;101443.63;5062677;28;1167;-73
2023/05/22 08:34:41;;;;;;;;;;;;;;;17.17;100.00;101449.38;5062242;28;1017;-73
2023/05/22 08:37:08;;;;;;;;;;;;;;;17.23;100.00;101454.03;5056305;28;1200;-73
2023/05/22 08:39:33;;;;;;;;;;;;;;;17.19;100.00;101453.50;5045954;28;1460;-74
2023/05/22 08:41:58;;;;;;;;;;;;;;;17.21;100.00;101448.13;5069849;28;1890;-73
2023/05/22 08:44:24;;;;;;;;;;;;;;;17.26;100.00;101453.69;5063088;28;1201;-73
2023/05/22 08:46:50;;;;;;;;;;;;;;;17.38;100.00;101455.13;5067926;28;1042;-72
2023/05/22 08:49:16;;;;;;;;;;;;;;;17.27;100.00;101447.50;5050253;28;1313;-73
2023/05/22 08:51:45;;;;;;;;;;;;;;;17.32;100.00;101447.88;5069444;28;1324;-73
2023/05/22 08:54:10;;;;;;;;;;;;;;;17.43;100.00;101439.75;5062912;28;1248;-72
2023/05/22 08:56:36;;;;;;;;;;;;;;;17.52;100.00;101451.91;5045529;28;1264;-73
2023/05/22 08:59:01;;;;;;;;;;;;;;;17.63;100.00;101445.59;5061166;28;1121;-72
2023/05/22 09:01:27;;;;;;;;;;;;;;;17.74;100.00;101447.16;5064603;28;1964;-73
2023/05/22 09:03:52;;;;;;;;;;;;;;;17.85;100.00;101452.13;5042446;28;1254;-70
2023/05/22 09:06:18;;;;;;;;;;;;;;;17.93;100.00;101452.16;5060911;28;1519;-74
2023/05/22 09:08:43;;;;;;;;;;;;;;;17.95;100.00;101450.19;5066310;28;1474;-74
2023/05/22 09:11:09;;;;;;;;;;;;;;;18.08;100.00;101448.94;5045855;28;1302;-70
2023/05/22 09:13:37;;;;;;;;;;;;;;;18.16;100.00;101441.88;5062216;28;1086;-74
2023/05/22 09:16:12;;;;;;;;;;;;;;;18.26;100.00;101447.00;5040561;28;1542;-74
2023/05/22 09:18:37;;;;;;;;;;;;;;;18.35;100.00;101440.81;5046800;28;1161;-74
2023/05/22 09:21:03;;;;;;;;;;;;;;;18.48;100.00;101441.16;5047351;28;1180;-74
2023/05/22 09:23:28;;;;;;;;;;;;;;;18.58;100.00;101444.47;5063567;28;1926;-74
2023/05/22 09:25:55;;;;;;;;;;;;;;;18.66;100.00;101445.44;5066092;28;1188;-73
2023/05/22 09:28:20;;;;;;;;;;;;;;;18.74;100.00;101441.03;5058791;28;1144;-74
2023/05/22 09:30:50;;;;;;;;;;;;;;;18.87;100.00;101445.81;5047794;28;1189;-74
2023/05/22 09:33:15;;;;;;;;;;;;;;;18.93;99.58;101445.16;5067538;28;1267;-74
2023/05/22 09:35:42;;;;;;;;;;;;;;;19.00;99.48;101440.88;5065297;28;1411;-73
2023/05/22 09:38:08;;;;;;;;;;;;;;;19.12;99.25;101448.44;5068545;28;1310;-74
2023/05/22 09:40:33;;;;;;;;;;;;;;;19.20;98.87;101440.53;5043907;28;1266;-74
2023/05/22 09:42:59;;;;;;;;;;;;;;;19.26;97.66;101445.13;5045077;28;1893;-75
2023/05/22 09:45:26;;;;;;;;;;;;;;;19.32;97.78;101433.94;5061324;28;1185;-74
2023/05/22 09:47:51;;;;;;;;;;;;;;;19.44;97.76;101437.88;5054331;28;1396;-73
2023/05/22 09:50:17;;;;;;;;;;;;;;;19.56;96.92;101436.53;5066672;28;1551;-74
2023/05/22 09:52:43;;;;;;;;;;;;;;;19.65;96.87;101439.16;5059854;28;1300;-74
2023/05/22 09:55:09;;;;;;;;;;;;;;;19.73;97.01;101441.75;5067395;28;1189;-75
2023/05/22 09:57:43;;;;;;;;;;;;;;;19.82;96.26;101440.72;5065014;28;1166;-75
2023/05/22 10:00:14;;;;;;;;;;;;;;;19.88;95.65;101426.88;5063447;28;1522;-74
2023/05/22 10:02:46;;;;;;;;;;;;;;;19.95;95.15;101430.47;5048786;28;1957;-74
2023/05/22 10:05:20;;;;;;;;;;;;;;;19.99;94.74;101428.31;5052659;28;1328;-77
2023/05/22 10:07:55;;;;;;;;;;;;;;;20.03;94.81;101427.81;5056688;28;1265;-77
2023/05/22 10:10:22;;;;;;;;;;;;;;;20.16;94.62;101437.78;5056719;28;1365;-77
2023/05/22 10:12:50;;;;;;;;;;;;;;;20.27;94.50;101428.66;5037110;28;1602;-74
2023/05/22 10:15:16;;;;;;;;;;;;;;;20.33;94.11;101427.97;5068243;28;1263;-75
2023/05/22 10:17:42;;;;;;;;;;;;;;;20.40;94.02;101426.25;5056400;28;1209;-75
2023/05/22 10:20:07;;;;;;;;;;;;;;;20.45;92.52;101426.56;5056701;28;1177;-74
2023/05/22 10:22:36;;;;;;;;;;;;;;;20.62;90.91;101412.31;5053396;28;1890;-75
2023/05/22 10:25:02;;;;;;;;;;;;;;;20.57;91.00;101417.28;5066544;28;1275;-74
2023/05/22 10:27:27;;;;;;;;;;;;;;;20.64;92.77;101415.59;5069253;28;1272;-74
2023/05/22 10:30:02;;;;;;;;;;;;;;;20.77;91.83;101422.09;5047696;28;1191;-75
2023/05/22 10:32:43;;;;;;;;;;;;;;;20.89;90.73;101420.66;5048668;28;1320;-76
2023/05/22 10:35:12;;;;;;;;;;;;;;;21.03;89.13;101424.31;5058815;28;1268;-75
2023/05/22 10:37:54;;;;;;;;;;;;;;;20.97;90.77;101417.94;5049591;28;1206;-75
2023/05/22 10:40:27;;;;;;;;;;;;;;;21.10;90.56;101412.84;5069111;28;1317;-74
2023/05/22 10:42:57;;;;;;;;;;;;;;;21.21;90.13;101401.88;5060302;28;1898;-74
2023/05/22 10:45:24;;;;;;;;;;;;;;;21.29;89.42;101408.94;5047448;28;1346;-74
2023/05/22 10:48:00;;;;;;;;;;;;;;;21.42;87.67;101413.56;5067849;28;1251;-74
2023/05/22 10:50:25;;;;;;;;;;;;;;;21.39;89.28;101406.00;5064587;28;1428;-74
2023/05/22 10:53:10;;;;;;;;;;;;;;;21.54;88.48;101409.47;5048847;28;1325;-74
2023/05/22 10:55:45;;;;;;;;;;;;;;;21.69;88.28;101399.72;5065378;28;1126;-75
2023/05/22 10:58:13;;;;;;;;;;;;;;;21.86;88.44;101410.09;5037588;28;1287;-76
2023/05/22 11:00:39;;;;;;;;;;;;;;;21.98;87.83;101409.41;5063565;28;1094;-75
2023/05/22 11:03:05;;;;;;;;;;;;;;;22.03;87.09;101403.56;5063589;28;1951;-75
2023/05/22 11:05:30;;;;;;;;;;;;;;;22.08;86.36;101414.41;5066428;28;1173;-75
2023/05/22 11:08:27;;;;;;;;;;;;;;;22.13;86.26;101417.31;5064320;28;1224;-75
2023/05/22 11:10:54;;;;;;;;;;;;;;;22.16;84.28;101416.94;5039609;28;1437;-76
2023/05/22 11:13:19;;;;;;;;;;;;;;;22.31;81.71;101418.72;5065363;28;1008;-76
2023/05/22 11:15:45;;;;;;;;;;;;;;;22.16;81.44;101414.31;5043186;28;1207;-76
2023/05/22 11:18:11;;;;;;;;;;;;;;;22.33;78.05;101406.97;5069518;28;1626;-75
2023/05/22 11:20:38;;;;;;;;;;;;;;;22.03;80.69;101400.13;5062610;28;1571;-75
2023/05/22 11:23:04;;;;;;;;;;;;;;;22.18;80.96;101404.38;5067898;28;1894;-75
2023/05/22 11:25:31;;;;;;;;;;;;;;;22.16;81.92;101395.81;5040207;28;1290;-75
2023/05/22 11:27:57;;;;;;;;;;;;;;;22.26;82.93;101396.34;5065541;28;1229;-75
2023/05/22 11:30:26;;;;;;;;;;;;;;;22.44;80.74;101395.06;5061012;28;1181;-75
2023/05/22 11:32:52;;;;;;;;;;;;;;;22.39;81.10;101394.81;5063639;28;1240;-75
2023/05/22 11:35:18;;;;;;;;;;;;;;;22.41;81.64;101392.78;5055926;28;1198;-75
2023/05/22 11:37:43;;;;;;;;;;;;;;;22.51;82.08;101396.75;5061580;28;1236;-76
2023/05/22 11:40:09;;;;;;;;;;;;;;;22.67;81.41;101398.34;5045837;28;1172;-75
2023/05/22 11:42:35;;;;;;;;;;;;;;;22.77;81.55;101398.81;5059362;28;1898;-76
2023/05/22 11:45:00;;;;;;;;;;;;;;;22.90;82.16;101397.31;5055162;28;1377;-75
2023/05/22 11:47:27;;;;;;;;;;;;;;;23.02;80.39;101395.78;5064234;28;1148;-76
2023/05/22 11:49:53;;;;;;;;;;;;;;;23.05;81.56;101396.22;5052399;28;1326;-76
2023/05/22 11:52:18;;;;;;;;;;;;;;;23.16;81.61;101386.91;5043701;28;1318;-75
2023/05/22 11:54:46;;;;;;;;;;;;;;;23.31;79.83;101384.97;5059418;28;1395;-75
2023/05/22 11:57:12;;;;;;;;;;;;;;;23.29;79.20;101387.00;5060867;28;1137;-75
2023/05/22 11:59:37;;;;;;;;;;;;;;;23.34;80.28;101378.47;5060265;28;986;-75
2023/05/22 12:02:02;;;;;;;;;;;;;;;23.44;79.85;101388.69;5063464;28;1969;-74
2023/05/22 12:04:27;;;;;;;;;;;;;;;23.50;79.09;101382.59;5062062;28;1197;-75
2023/05/22 12:06:53;;;;;;;;;;;;;;;23.53;78.62;101388.34;5065711;28;1483;-75
2023/05/22 12:09:18;;;;;;;;;;;;;;;23.55;79.34;101385.47;5067105;28;1490;-75
2023/05/22 12:11:47;;;;;;;;;;;;;;;23.62;78.46;101381.06;5049801;28;1329;-75
2023/05/22 12:14:13;;;;;;;;;;;;;;;23.70;77.61;101378.25;5069865;28;1312;-75
2023/05/22 12:16:38;;;;;;;;;;;;;;;23.69;75.93;101387.22;5062550;28;1553;-76
2023/05/22 12:19:05;;;;;;;;;;;;;;;23.62;77.65;101370.47;5060497;28;1213;-75
2023/05/22 12:21:30;;;;;;;;;;;;;;;23.73;76.79;101369.91;5064179;28;1961;-75
2023/05/22 12:23:56;;;;;;;;;;;;;;;23.75;77.27;101375.03;5052650;28;1315;-75
2023/05/22 12:26:22;;;;;;;;;;;;;;;23.74;75.22;101382.16;5064596;28;1273;-75
2023/05/22 12:28:51;;;;;;;;;;;;;;;23.72;75.77;101376.22;5057126;28;1272;-74
2023/05/22 12:31:20;;;;;;;;;;;;;;;23.76;75.77;101376.66;5064016;28;1282;-74
2023/05/22 12:33:45;;;;;;;;;;;;;;;23.84;76.15;101374.63;5060706;28;1177;-75
2023/05/22 12:36:10;;;;;;;;;;;;;;;23.93;75.06;101371.81;5068241;28;1328;-75